createdAt,value
2023-03-21T00:00:26.038Z,11.40
2023-03-21T00:01:27.755Z,11.55
2023-03-21T00:02:30.007Z,10.30
2023-03-21T00:03:34.039Z,10.82
2023-03-21T00:04:50.672Z,10.85
2023-03-21T00:05:53.949Z,10.90
2023-03-21T00:06:56.017Z,10.73
2023-03-21T00:07:59.554Z,10.10
2023-03-21T00:09:02.943Z,9.88
2023-03-21T00:10:15.429Z,10.18
2023-03-21T00:11:20.679Z,9.82
2023-03-21T00:12:22.602Z,9.80
2023-03-21T00:13:26.607Z,10.13
2023-03-21T00:14:30.743Z,10.32
2023-03-21T00:15:42.550Z,10.77
2023-03-21T00:16:50.848Z,11.07
2023-03-21T00:18:04.386Z,10.43
2023-03-21T00:19:07.526Z,10.45
2023-03-21T00:20:15.371Z,10.77
2023-03-21T00:21:40.914Z,10.40
2023-03-21T00:22:42.302Z,10.77
2023-03-21T00:23:45.884Z,10.25
2023-03-21T00:24:48.366Z,10.30
2023-03-21T00:25:50.297Z,10.07
2023-03-21T00:26:52.280Z,10.35
2023-03-21T00:28:07.567Z,10.40
2023-03-21T00:29:10.183Z,10.60
2023-03-21T00:30:12.761Z,10.35
2023-03-21T00:31:17.190Z,10.35
2023-03-21T00:32:21.310Z,10.55
2023-03-21T00:33:23.185Z,10.60
2023-03-21T00:34:36.894Z,9.88
2023-03-21T00:36:05.712Z,9.20
2023-03-21T00:37:09.395Z,9.13
2023-03-21T00:38:11.399Z,9.45
2023-03-21T00:39:14.222Z,10.15
2023-03-21T00:40:26.581Z,8.93
2023-03-21T00:41:47.662Z,9.77
2023-03-21T00:42:49.585Z,9.77
2023-03-21T00:43:52.065Z,9.35
2023-03-21T00:44:54.004Z,9.20
2023-03-21T00:46:00.802Z,9.45
2023-03-21T00:47:07.340Z,9.43
2023-03-21T00:48:10.763Z,9.95
2023-03-21T00:49:12.809Z,9.35
2023-03-21T00:50:16.394Z,8.98
2023-03-21T00:51:27.207Z,10.00
2023-03-21T00:52:40.142Z,10.63
2023-03-21T00:53:43.076Z,9.52
2023-03-21T00:54:44.923Z,10.15
2023-03-21T00:55:47.378Z,10.18
2023-03-21T00:56:49.818Z,9.65
2023-03-21T00:58:01.315Z,10.02
2023-03-21T00:59:03.837Z,10.35
2023-03-21T01:00:10.674Z,10.02
2023-03-21T01:01:12.938Z,10.05
2023-03-21T01:02:22.731Z,10.38
2023-03-21T01:03:26.624Z,10.38
2023-03-21T01:04:28.871Z,9.98
2023-03-21T01:05:51.352Z,10.18
2023-03-21T01:06:54.594Z,10.63
2023-03-21T01:07:56.812Z,10.25
2023-03-21T01:08:59.393Z,10.68
2023-03-21T01:10:01.278Z,10.25
2023-03-21T01:11:08.160Z,10.50
2023-03-21T01:12:10.663Z,10.15
2023-03-21T01:13:14.310Z,10.02
2023-03-21T01:14:22.944Z,10.98
2023-03-21T01:15:25.073Z,10.73
2023-03-21T01:16:27.535Z,10.07
2023-03-21T01:17:29.459Z,10.85
2023-03-21T01:18:32.456Z,10.27
2023-03-21T01:19:48.748Z,11.45
2023-03-21T01:20:54.862Z,10.30
2023-03-21T01:21:57.567Z,10.98
2023-03-21T01:22:59.660Z,10.93
2023-03-21T01:24:01.782Z,11.25
2023-03-21T01:25:21.075Z,11.12
2023-03-21T01:26:24.028Z,11.30
2023-03-21T01:27:25.966Z,10.93
2023-03-21T01:28:29.549Z,11.38
2023-03-21T01:29:31.573Z,11.77
2023-03-21T01:30:41.605Z,12.13
2023-03-21T01:31:44.190Z,12.60
2023-03-21T01:32:46.123Z,12.20
2023-03-21T01:33:48.173Z,11.63
2023-03-21T01:34:50.811Z,12.07
2023-03-21T01:36:00.293Z,11.10
2023-03-21T01:37:08.392Z,11.52
2023-03-21T01:38:12.761Z,11.60
2023-03-21T01:39:17.462Z,11.98
2023-03-21T01:40:26.076Z,12.23
2023-03-21T01:41:47.760Z,11.68
2023-03-21T01:42:50.620Z,11.93
2023-03-21T01:43:54.655Z,12.37
2023-03-21T01:45:00.661Z,11.60
2023-03-21T01:46:26.261Z,11.48
2023-03-21T01:47:30.114Z,11.40
2023-03-21T01:48:34.137Z,12.70
2023-03-21T01:49:46.048Z,11.95
2023-03-21T01:50:50.179Z,12.70
2023-03-21T01:52:01.124Z,11.82
2023-03-21T01:53:06.906Z,13.18
2023-03-21T01:54:15.368Z,12.32
2023-03-21T01:55:18.980Z,13.25
2023-03-21T01:56:29.361Z,12.98
2023-03-21T01:57:49.236Z,13.32
2023-03-21T01:59:24.929Z,13.75
2023-03-21T02:00:29.548Z,13.07
2023-03-21T02:01:34.846Z,13.02
2023-03-21T02:02:37.602Z,13.15
2023-03-21T02:03:51.027Z,12.18
2023-03-21T02:04:58.343Z,12.02
2023-03-21T02:06:04.953Z,12.27
2023-03-21T02:07:19.425Z,12.77
2023-03-21T02:08:30.573Z,12.70
2023-03-21T02:09:46.475Z,13.57
2023-03-21T02:10:50.675Z,12.48
2023-03-21T02:11:55.962Z,12.75
2023-03-21T02:13:09.344Z,12.40
2023-03-21T02:14:23.396Z,12.10
2023-03-21T02:15:30.831Z,11.55
2023-03-21T02:17:03.093Z,11.38
2023-03-21T02:18:08.004Z,12.70
2023-03-21T02:19:25.958Z,13.38
2023-03-21T02:20:58.582Z,13.35
2023-03-21T02:22:03.988Z,13.77
2023-03-21T02:23:28.870Z,12.48
2023-03-21T02:25:13.368Z,12.37
2023-03-21T02:26:48.199Z,12.20
2023-03-21T02:28:01.304Z,11.70
2023-03-21T02:29:19.012Z,11.88
2023-03-21T02:30:35.442Z,11.02
2023-03-21T02:31:48.231Z,11.05
2023-03-21T02:33:31.654Z,10.65
2023-03-21T02:34:42.826Z,11.40
2023-03-21T02:36:17.779Z,10.77
2023-03-21T02:37:55.233Z,11.02
2023-03-21T02:39:35.992Z,11.63
2023-03-21T02:40:47.449Z,11.70
2023-03-21T02:41:55.319Z,9.75
2023-03-21T02:43:22.555Z,9.85
2023-03-21T02:44:51.696Z,9.05
2023-03-21T02:45:54.221Z,9.52
2023-03-21T02:47:06.367Z,8.90
2023-03-21T02:48:25.525Z,9.80
2023-03-21T02:49:31.593Z,9.25
2023-03-21T02:50:43.684Z,9.57
2023-03-21T02:51:48.432Z,9.00
2023-03-21T02:52:52.343Z,9.27
2023-03-21T02:54:30.319Z,9.43
2023-03-21T02:55:27.515Z,9.18
2023-03-21T02:56:33.649Z,9.35
2023-03-21T02:57:42.548Z,9.48
2023-03-21T02:58:48.129Z,10.35
2023-03-21T02:59:56.904Z,10.02
2023-03-21T03:01:01.165Z,9.05
2023-03-21T03:02:04.390Z,9.10
2023-03-21T03:03:11.398Z,10.27
2023-03-21T03:04:19.529Z,9.80
2023-03-21T03:05:27.907Z,9.25
2023-03-21T03:06:47.225Z,8.95
2023-03-21T03:07:51.971Z,9.93
2023-03-21T03:09:14.691Z,10.10
2023-03-21T03:10:57.948Z,9.55
2023-03-21T03:12:16.519Z,9.55
2023-03-21T03:13:24.354Z,9.10
2023-03-21T03:14:47.101Z,10.10
2023-03-21T03:16:03.171Z,9.48
2023-03-21T03:17:28.364Z,9.30
2023-03-21T03:19:06.934Z,9.07
2023-03-21T03:20:17.518Z,9.63
2023-03-21T03:21:52.783Z,9.95
2023-03-21T03:23:04.016Z,11.12
2023-03-21T03:24:22.868Z,9.77
2023-03-21T03:25:42.170Z,9.43
2023-03-21T03:26:55.617Z,10.27
2023-03-21T03:28:01.475Z,9.73
2023-03-21T03:29:11.969Z,9.23
2023-03-21T03:30:15.272Z,9.35
2023-03-21T03:31:25.972Z,10.10
2023-03-21T03:32:44.863Z,9.27
2023-03-21T03:33:52.263Z,9.05
2023-03-21T03:34:57.020Z,9.98
2023-03-21T03:36:05.523Z,9.77
2023-03-21T03:37:13.541Z,9.60
2023-03-21T03:38:17.345Z,9.45
2023-03-21T03:39:19.605Z,9.00
2023-03-21T03:40:31.700Z,9.38
2023-03-21T03:42:04.246Z,9.55
2023-03-21T03:43:10.413Z,8.25
2023-03-21T03:44:13.157Z,9.55
2023-03-21T03:45:24.500Z,8.10
2023-03-21T03:46:39.970Z,9.10
2023-03-21T03:47:56.447Z,9.32
2023-03-21T03:49:07.933Z,8.95
2023-03-21T03:50:36.913Z,8.98
2023-03-21T03:51:49.949Z,8.75
2023-03-21T03:52:59.814Z,9.27
2023-03-21T03:54:07.978Z,8.38
2023-03-21T03:55:14.464Z,8.80
2023-03-21T03:56:17.463Z,8.82
2023-03-21T03:57:20.711Z,8.10
2023-03-21T03:58:36.172Z,7.65
2023-03-21T03:59:46.858Z,8.57
2023-03-21T04:00:56.057Z,8.27
2023-03-21T04:01:58.424Z,7.60
2023-03-21T04:03:01.291Z,7.40
2023-03-21T04:04:12.524Z,7.60
2023-03-21T04:05:21.100Z,7.65
2023-03-21T04:06:23.116Z,7.90
2023-03-21T04:07:25.930Z,7.68
2023-03-21T04:08:28.152Z,7.60
2023-03-21T04:09:43.243Z,7.00
2023-03-21T04:10:46.885Z,7.12
2023-03-21T04:11:49.733Z,7.40
2023-03-21T04:12:52.010Z,7.80
2023-03-21T04:13:54.848Z,7.50
2023-03-21T04:15:04.910Z,7.32
2023-03-21T04:16:13.107Z,7.47
2023-03-21T04:17:16.260Z,7.80
2023-03-21T04:18:18.766Z,6.85
2023-03-21T04:19:20.959Z,7.60
2023-03-21T04:20:35.584Z,6.93
2023-03-21T04:21:39.567Z,7.47
2023-03-21T04:22:41.983Z,7.53
2023-03-21T04:23:44.199Z,6.97
2023-03-21T04:24:46.148Z,6.80
2023-03-21T04:25:56.423Z,7.47
2023-03-21T04:27:01.338Z,7.05
2023-03-21T04:28:04.191Z,7.00
2023-03-21T04:29:07.758Z,6.82
2023-03-21T04:30:12.234Z,6.85
2023-03-21T04:31:24.941Z,7.87
2023-03-21T04:32:28.391Z,7.37
2023-03-21T04:33:30.741Z,7.43
2023-03-21T04:34:33.101Z,7.80
2023-03-21T04:35:37.637Z,8.20
2023-03-21T04:36:44.567Z,7.28
2023-03-21T04:37:46.705Z,7.70
2023-03-21T04:38:49.126Z,7.37
2023-03-21T04:39:51.738Z,7.70
2023-03-21T04:40:53.710Z,7.68
2023-03-21T04:41:57.034Z,7.60
2023-03-21T04:43:01.272Z,7.62
2023-03-21T04:44:03.532Z,7.30
2023-03-21T04:45:06.923Z,8.40
2023-03-21T04:46:08.801Z,7.78
2023-03-21T04:47:11.144Z,7.55
2023-03-21T04:48:14.532Z,8.60
2023-03-21T04:49:16.608Z,8.02
2023-03-21T04:50:19.094Z,8.15
2023-03-21T04:51:21.020Z,8.10
2023-03-21T04:52:25.244Z,7.80
2023-03-21T04:53:27.417Z,7.45
2023-03-21T04:54:29.383Z,7.00
2023-03-21T04:55:33.156Z,7.07
2023-03-21T04:56:36.353Z,7.40
2023-03-21T04:57:38.787Z,7.87
2023-03-21T04:58:41.838Z,7.20
2023-03-21T04:59:43.832Z,7.70
2023-03-21T05:00:48.005Z,7.05
2023-03-21T05:01:50.359Z,7.62
2023-03-21T05:02:52.259Z,8.13
2023-03-21T05:03:54.108Z,7.85
2023-03-21T05:04:57.473Z,7.82
2023-03-21T05:06:00.120Z,7.55
2023-03-21T05:07:02.041Z,8.25
2023-03-21T05:08:06.265Z,7.72
2023-03-21T05:09:08.855Z,7.85
2023-03-21T05:10:12.435Z,7.43
2023-03-21T05:11:14.949Z,8.50
2023-03-21T05:12:18.546Z,7.80
2023-03-21T05:13:20.849Z,7.90
2023-03-21T05:14:26.482Z,8.32
2023-03-21T05:15:28.560Z,8.38
2023-03-21T05:16:31.265Z,7.80
2023-03-21T05:17:33.678Z,8.65
2023-03-21T05:18:38.743Z,8.50
2023-03-21T05:19:42.651Z,8.13
2023-03-21T05:20:47.151Z,8.25
2023-03-21T05:21:50.468Z,7.85
2023-03-21T05:22:52.856Z,7.62
2023-03-21T05:23:55.283Z,7.87
2023-03-21T05:24:57.802Z,8.05
2023-03-21T05:26:00.627Z,8.05
2023-03-21T05:27:06.603Z,8.27
2023-03-21T05:28:12.446Z,7.87
2023-03-21T05:29:19.475Z,8.15
2023-03-21T05:30:25.311Z,7.82
2023-03-21T05:31:31.762Z,8.48
2023-03-21T05:32:34.978Z,8.35
2023-03-21T05:33:36.873Z,7.97
2023-03-21T05:34:38.783Z,7.50
2023-03-21T05:35:41.024Z,8.40
2023-03-21T05:36:43.663Z,8.18
2023-03-21T05:37:46.434Z,7.82
2023-03-21T05:38:51.375Z,7.75
2023-03-21T05:39:53.586Z,8.20
2023-03-21T05:40:56.292Z,8.50
2023-03-21T05:41:59.424Z,7.45
2023-03-21T05:43:01.900Z,7.10
2023-03-21T05:44:03.822Z,6.57
2023-03-21T05:45:06.548Z,7.35
2023-03-21T05:46:09.442Z,6.50
2023-03-21T05:47:15.863Z,6.62
2023-03-21T05:48:18.852Z,6.78
2023-03-21T05:49:24.541Z,6.32
2023-03-21T05:50:28.263Z,7.43
2023-03-21T05:51:30.874Z,6.35
2023-03-21T05:52:33.026Z,6.40
2023-03-21T05:53:36.270Z,6.07
2023-03-21T05:54:38.187Z,6.28
2023-03-21T05:55:40.439Z,6.43
2023-03-21T05:56:43.423Z,6.53
2023-03-21T05:57:46.300Z,6.30
2023-03-21T05:58:48.680Z,6.65
2023-03-21T05:59:51.064Z,7.03
2023-03-21T06:00:53.530Z,6.00
2023-03-21T06:01:57.088Z,6.57
2023-03-21T06:02:59.124Z,6.22
2023-03-21T06:04:01.623Z,6.55
2023-03-21T06:05:04.290Z,6.53
2023-03-21T06:06:06.909Z,6.43
2023-03-21T06:07:09.611Z,6.80
2023-03-21T06:08:13.821Z,6.65
2023-03-21T06:09:16.108Z,6.43
2023-03-21T06:10:19.906Z,6.15
2023-03-21T06:11:28.912Z,6.07
2023-03-21T06:12:31.990Z,6.28
2023-03-21T06:13:34.531Z,6.60
2023-03-21T06:14:36.695Z,4.75
2023-03-21T06:15:40.372Z,4.25
2023-03-21T06:16:44.354Z,6.10
2023-03-21T06:17:46.680Z,5.90
2023-03-21T06:18:48.741Z,6.28
2023-03-21T06:19:51.994Z,5.65
2023-03-21T06:20:54.786Z,5.45
2023-03-21T06:21:56.868Z,4.95
2023-03-21T06:22:59.315Z,5.12
2023-03-21T06:24:01.213Z,4.97
2023-03-21T06:25:04.832Z,4.87
2023-03-21T06:26:07.733Z,4.85
2023-03-21T06:27:10.497Z,4.80
2023-03-21T06:28:13.736Z,5.12
2023-03-21T06:29:16.033Z,4.28
2023-03-21T06:30:21.330Z,4.65
2023-03-21T06:31:25.226Z,4.07
2023-03-21T06:32:28.230Z,5.05
2023-03-21T06:33:31.130Z,4.50
2023-03-21T06:34:33.296Z,4.68
2023-03-21T06:35:36.046Z,5.60
2023-03-21T06:36:38.677Z,5.10
2023-03-21T06:37:40.730Z,4.68
2023-03-21T06:38:44.557Z,4.97
2023-03-21T06:39:47.069Z,5.18
2023-03-21T06:40:49.720Z,5.22
2023-03-21T06:41:51.839Z,4.53
2023-03-21T06:42:53.807Z,5.12
2023-03-21T06:43:55.961Z,4.47
2023-03-21T06:44:58.418Z,4.43
2023-03-21T06:46:01.355Z,5.30
2023-03-21T06:47:03.486Z,5.37
2023-03-21T06:48:08.719Z,4.62
2023-03-21T06:49:15.853Z,5.03
2023-03-21T06:50:17.955Z,5.15
2023-03-21T06:51:19.929Z,5.22
2023-03-21T06:52:24.550Z,4.93
2023-03-21T06:53:28.265Z,5.40
2023-03-21T06:54:32.310Z,5.07
2023-03-21T06:55:34.549Z,5.00
2023-03-21T06:56:36.611Z,5.07
2023-03-21T06:57:38.690Z,5.15
2023-03-21T06:58:41.785Z,4.80
2023-03-21T06:59:44.396Z,5.20
2023-03-21T07:00:46.719Z,5.45
2023-03-21T07:01:48.887Z,5.35
2023-03-21T07:02:51.398Z,5.47
2023-03-21T07:03:56.677Z,6.40
2023-03-21T07:04:59.210Z,5.72
2023-03-21T07:06:13.633Z,5.45
2023-03-21T07:07:16.130Z,5.95
2023-03-21T07:08:18.625Z,6.22
2023-03-21T07:09:24.559Z,5.12
2023-03-21T07:10:27.080Z,5.53
2023-03-21T07:11:29.361Z,5.53
2023-03-21T07:12:34.164Z,5.57
2023-03-21T07:13:37.223Z,6.05
2023-03-21T07:14:39.237Z,5.93
2023-03-21T07:15:41.489Z,5.70
2023-03-21T07:16:43.430Z,6.15
2023-03-21T07:17:45.410Z,5.62
2023-03-21T07:18:47.554Z,4.85
2023-03-21T07:19:49.787Z,5.45
2023-03-21T07:20:52.844Z,5.35
2023-03-21T07:21:54.822Z,5.18
2023-03-21T07:22:57.533Z,5.62
2023-03-21T07:24:01.493Z,5.53
2023-03-21T07:25:05.438Z,5.72
2023-03-21T07:26:08.824Z,6.37
2023-03-21T07:27:10.659Z,5.22
2023-03-21T07:28:12.551Z,5.60
2023-03-21T07:29:15.409Z,5.22
2023-03-21T07:30:17.548Z,5.75
2023-03-21T07:31:19.893Z,5.65
2023-03-21T07:32:23.396Z,5.55
2023-03-21T07:33:26.080Z,5.25
2023-03-21T07:34:33.090Z,5.47
2023-03-21T07:35:38.197Z,5.07
2023-03-21T07:36:41.214Z,5.65
2023-03-21T07:37:43.641Z,5.07
2023-03-21T07:38:49.494Z,5.85
2023-03-21T07:39:53.939Z,5.57
2023-03-21T07:41:00.768Z,5.90
2023-03-21T07:42:04.510Z,5.53
2023-03-21T07:43:06.516Z,5.93
2023-03-21T07:44:08.577Z,5.85
2023-03-21T07:45:14.535Z,6.07
2023-03-21T07:46:16.589Z,6.12
2023-03-21T07:47:18.802Z,5.28
2023-03-21T07:48:22.773Z,5.70
2023-03-21T07:49:24.744Z,6.32
2023-03-21T07:50:26.687Z,5.87
2023-03-21T07:51:28.673Z,5.40
2023-03-21T07:52:31.328Z,5.22
2023-03-21T07:53:33.252Z,4.78
2023-03-21T07:54:35.365Z,5.12
2023-03-21T07:55:37.588Z,4.60
2023-03-21T07:56:39.612Z,5.53
2023-03-21T07:57:41.830Z,4.50
2023-03-21T07:58:43.890Z,4.85
2023-03-21T07:59:46.202Z,4.78
2023-03-21T08:00:49.107Z,4.90
2023-03-21T08:01:51.798Z,5.10
2023-03-21T08:02:58.563Z,4.37
2023-03-21T08:04:00.786Z,4.72
2023-03-21T08:05:04.121Z,5.28
2023-03-21T08:06:06.396Z,4.95
2023-03-21T08:07:09.102Z,5.18
2023-03-21T08:08:11.279Z,4.35
2023-03-21T08:09:13.188Z,4.47
2023-03-21T08:10:15.779Z,4.68
2023-03-21T08:11:18.126Z,5.12
2023-03-21T08:12:20.334Z,5.68
2023-03-21T08:13:23.016Z,4.30
2023-03-21T08:14:24.906Z,4.60
2023-03-21T08:15:26.824Z,4.32
2023-03-21T08:16:30.103Z,4.53
2023-03-21T08:17:32.356Z,4.57
2023-03-21T08:18:34.214Z,4.25
2023-03-21T08:19:37.447Z,4.50
2023-03-21T08:20:39.789Z,4.47
2023-03-21T08:21:41.714Z,4.05
2023-03-21T08:22:44.381Z,4.85
2023-03-21T08:23:46.191Z,4.95
2023-03-21T08:24:48.051Z,4.32
2023-03-21T08:25:54.471Z,4.72
2023-03-21T08:26:56.656Z,4.35
2023-03-21T08:27:58.828Z,4.00
2023-03-21T08:29:00.922Z,4.30
2023-03-21T08:30:03.554Z,4.65
2023-03-21T08:31:10.349Z,4.40
2023-03-21T08:32:12.277Z,4.90
2023-03-21T08:33:14.894Z,3.95
2023-03-21T08:34:18.179Z,4.53
2023-03-21T08:35:20.540Z,4.40
2023-03-21T08:36:23.554Z,4.45
2023-03-21T08:37:25.679Z,4.60
2023-03-21T08:38:33.510Z,4.55
2023-03-21T08:39:35.437Z,4.50
2023-03-21T08:40:37.332Z,3.78
2023-03-21T08:41:39.192Z,3.75
2023-03-21T08:42:42.107Z,4.93
2023-03-21T08:43:44.298Z,4.00
2023-03-21T08:44:46.211Z,4.68
2023-03-21T08:45:48.112Z,4.62
2023-03-21T08:46:50.122Z,4.37
2023-03-21T08:47:52.002Z,4.80
2023-03-21T08:48:54.801Z,4.62
2023-03-21T08:49:59.158Z,4.47
2023-03-21T08:51:01.396Z,4.65
2023-03-21T08:52:03.533Z,3.92
2023-03-21T08:53:05.573Z,4.22
2023-03-21T08:54:07.934Z,3.92
2023-03-21T08:55:10.571Z,4.78
2023-03-21T08:56:12.780Z,4.95
2023-03-21T08:57:15.033Z,4.60
2023-03-21T08:58:17.926Z,4.18
2023-03-21T08:59:20.381Z,4.22
2023-03-21T09:00:22.997Z,3.70
2023-03-21T09:01:24.879Z,3.70
2023-03-21T09:02:27.139Z,3.80
2023-03-21T09:03:30.377Z,3.50
2023-03-21T09:04:32.756Z,3.15
2023-03-21T09:05:36.690Z,3.33
2023-03-21T09:06:45.636Z,3.53
2023-03-21T09:07:49.631Z,3.30
2023-03-21T09:08:53.565Z,2.97
2023-03-21T09:10:14.792Z,2.70
2023-03-21T09:11:17.711Z,2.95
2023-03-21T09:12:19.808Z,2.70
2023-03-21T09:13:22.829Z,2.40
2023-03-21T09:14:28.793Z,2.62
2023-03-21T09:15:31.839Z,2.50
2023-03-21T09:16:34.631Z,2.42
2023-03-21T09:17:39.032Z,2.58
2023-03-21T09:18:55.545Z,2.78
2023-03-21T09:19:59.511Z,2.30
2023-03-21T09:21:02.083Z,2.72
2023-03-21T09:22:04.760Z,2.42
2023-03-21T09:23:06.921Z,2.50
2023-03-21T09:24:08.907Z,2.25
2023-03-21T09:25:11.383Z,2.20
2023-03-21T09:26:14.147Z,2.37
2023-03-21T09:27:18.144Z,2.78
2023-03-21T09:28:20.021Z,2.28
2023-03-21T09:29:23.260Z,1.90
2023-03-21T09:30:26.443Z,1.90
2023-03-21T09:31:28.962Z,1.70
2023-03-21T09:32:31.310Z,1.50
2023-03-21T09:33:33.274Z,1.70
2023-03-21T09:34:37.032Z,1.90
2023-03-21T09:35:39.173Z,1.90
2023-03-21T09:36:44.230Z,2.08
2023-03-21T09:37:47.845Z,2.30
2023-03-21T09:38:50.056Z,2.37
2023-03-21T09:39:52.202Z,1.95
2023-03-21T09:41:09.299Z,2.20
2023-03-21T09:42:37.934Z,2.22
2023-03-21T09:44:04.573Z,2.25
2023-03-21T09:45:39.166Z,2.47
2023-03-21T09:47:19.743Z,2.53
2023-03-21T09:48:56.653Z,2.25
2023-03-21T09:50:14.110Z,2.30
2023-03-21T09:51:19.370Z,2.75
2023-03-21T09:52:29.634Z,2.53
2023-03-21T09:53:41.437Z,2.17
2023-03-21T09:54:44.776Z,2.45
2023-03-21T09:55:47.227Z,2.45
2023-03-21T09:56:52.957Z,2.33
2023-03-21T09:58:14.465Z,2.35
2023-03-21T09:59:27.489Z,2.22
2023-03-21T10:00:36.443Z,2.30
2023-03-21T10:01:45.524Z,2.22
2023-03-21T10:02:56.897Z,1.95
2023-03-21T10:05:21.517Z,1.80
2023-03-21T10:06:29.675Z,2.00
2023-03-21T10:07:38.991Z,2.10
2023-03-21T10:08:42.952Z,2.12
2023-03-21T10:09:47.131Z,1.83
2023-03-21T10:10:55.846Z,1.60
2023-03-21T10:12:03.235Z,2.05
2023-03-21T10:13:13.342Z,1.98
2023-03-21T10:14:27.064Z,2.17
2023-03-21T10:15:29.047Z,1.95
2023-03-21T10:16:56.901Z,1.70
2023-03-21T10:18:05.625Z,1.90
2023-03-21T10:19:13.868Z,2.12
2023-03-21T10:20:37.551Z,2.40
2023-03-21T10:22:03.452Z,2.42
2023-03-21T10:23:08.404Z,2.33
2023-03-21T10:24:13.869Z,2.87
2023-03-21T10:25:19.072Z,2.17
2023-03-21T10:26:23.546Z,1.70
2023-03-21T10:27:25.570Z,1.52
2023-03-21T10:28:42.401Z,1.70
2023-03-21T10:29:53.332Z,1.70
2023-03-21T10:31:08.081Z,2.03
2023-03-21T10:32:16.949Z,2.95
2023-03-21T10:33:24.361Z,2.20
2023-03-21T10:34:44.457Z,2.25
2023-03-21T10:35:51.464Z,2.30
2023-03-21T10:36:54.074Z,2.28
2023-03-21T10:37:55.921Z,2.10
2023-03-21T10:39:02.222Z,1.70
2023-03-21T10:40:06.796Z,1.70
2023-03-21T10:41:11.433Z,1.92
2023-03-21T10:42:33.867Z,2.12
2023-03-21T10:43:38.648Z,2.10
2023-03-21T10:44:46.972Z,1.77
2023-03-21T10:45:49.291Z,1.60
2023-03-21T10:46:52.907Z,1.95
2023-03-21T10:47:55.607Z,1.73
2023-03-21T10:48:57.754Z,3.10
2023-03-21T10:50:10.172Z,2.00
2023-03-21T10:51:19.069Z,1.95
2023-03-21T10:52:28.789Z,2.00
2023-03-21T10:53:36.340Z,2.03
2023-03-21T10:54:38.305Z,1.90
2023-03-21T10:55:42.040Z,1.73
2023-03-21T10:56:51.280Z,1.58
2023-03-21T10:57:58.775Z,1.70
2023-03-21T10:59:02.439Z,1.85
2023-03-21T11:00:15.938Z,2.00
2023-03-21T11:01:30.381Z,2.00
2023-03-21T11:02:37.810Z,2.10
2023-03-21T11:03:46.834Z,1.90
2023-03-21T11:04:49.041Z,1.92
2023-03-21T11:05:57.216Z,1.83
2023-03-21T11:07:04.083Z,1.90
2023-03-21T11:08:15.442Z,1.95
2023-03-21T11:10:30.635Z,1.67
2023-03-21T11:11:39.967Z,1.50
2023-03-21T11:12:48.139Z,1.60
2023-03-21T11:13:59.015Z,1.50
2023-03-21T11:15:21.156Z,1.60
2023-03-21T11:16:30.003Z,1.80
2023-03-21T11:17:35.767Z,1.42
2023-03-21T11:18:43.379Z,1.48
2023-03-21T11:20:09.076Z,1.40
2023-03-21T11:21:13.461Z,1.40
2023-03-21T11:22:16.579Z,1.50
2023-03-21T11:23:20.921Z,1.55
2023-03-21T11:24:22.958Z,1.40
2023-03-21T11:25:38.101Z,1.70
2023-03-21T11:26:43.571Z,1.55
2023-03-21T11:27:51.697Z,1.62
2023-03-21T11:28:55.314Z,1.48
2023-03-21T11:30:01.643Z,1.40
2023-03-21T11:31:05.238Z,1.65
2023-03-21T11:32:13.882Z,1.40
2023-03-21T11:33:19.777Z,1.37
2023-03-21T11:34:30.602Z,1.40
2023-03-21T11:35:36.657Z,2.70
2023-03-21T11:36:39.219Z,1.48
2023-03-21T11:37:53.278Z,1.37
2023-03-21T11:39:02.711Z,1.48
2023-03-21T11:40:13.522Z,1.62
2023-03-21T11:41:29.387Z,1.50
2023-03-21T11:42:40.583Z,1.40
2023-03-21T11:43:52.612Z,1.90
2023-03-21T11:45:11.523Z,1.60
2023-03-21T11:46:14.922Z,1.50
2023-03-21T11:47:16.788Z,1.30
2023-03-21T11:48:18.731Z,1.52
2023-03-21T11:49:22.072Z,1.60
2023-03-21T11:50:33.793Z,1.67
2023-03-21T11:51:46.493Z,1.50
2023-03-21T11:53:04.979Z,1.50
2023-03-21T11:54:12.595Z,1.60
2023-03-21T11:55:33.007Z,2.03
2023-03-21T11:56:45.341Z,1.60
2023-03-21T11:58:23.009Z,1.55
2023-03-21T11:59:50.968Z,1.40
2023-03-21T12:01:26.626Z,1.60
2023-03-21T12:02:55.740Z,1.80
2023-03-21T12:04:18.656Z,1.60
2023-03-21T12:05:51.004Z,1.37
2023-03-21T12:08:12.714Z,1.80
2023-03-21T12:09:27.277Z,1.70
2023-03-21T12:11:01.270Z,1.55
2023-03-21T12:12:39.674Z,1.75
2023-03-21T12:14:19.479Z,1.75
2023-03-21T12:15:33.295Z,1.75
2023-03-21T12:17:17.127Z,1.70
2023-03-21T12:18:32.646Z,1.60
2023-03-21T12:19:58.150Z,1.83
2023-03-21T12:21:28.435Z,1.90
2023-03-21T12:22:39.001Z,1.90
2023-03-21T12:23:55.875Z,1.87
2023-03-21T12:25:06.361Z,1.90
2023-03-21T12:26:10.608Z,2.10
2023-03-21T12:27:32.472Z,1.83
2023-03-21T12:29:02.265Z,1.95
2023-03-21T12:30:33.828Z,1.52
2023-03-21T12:32:06.588Z,2.15
2023-03-21T12:33:08.395Z,1.87
2023-03-21T12:34:37.254Z,1.70
2023-03-21T12:36:07.257Z,1.50
2023-03-21T12:37:32.074Z,1.85
2023-03-21T12:38:36.541Z,1.92
2023-03-21T12:39:43.778Z,2.25
2023-03-21T12:40:58.084Z,2.20
2023-03-21T12:42:18.586Z,2.08
2023-03-21T12:43:40.020Z,2.00
2023-03-21T12:45:11.544Z,2.20
2023-03-21T12:46:44.874Z,2.10
2023-03-21T12:47:56.354Z,2.22
2023-03-21T12:49:02.941Z,2.12
2023-03-21T12:50:27.526Z,2.00
2023-03-21T12:51:37.209Z,2.03
2023-03-21T12:52:42.309Z,1.90
2023-03-21T12:53:53.813Z,1.80
2023-03-21T12:55:21.653Z,2.00
2023-03-21T12:56:51.118Z,1.70
2023-03-21T12:58:02.034Z,1.70
2023-03-21T12:59:26.936Z,1.52
2023-03-21T13:00:40.897Z,1.75
2023-03-21T13:01:45.501Z,2.08
2023-03-21T13:02:50.644Z,2.45
2023-03-21T13:04:21.034Z,2.42
2023-03-21T13:05:38.268Z,2.12
2023-03-21T13:06:41.246Z,2.35
2023-03-21T13:07:48.757Z,2.60
2023-03-21T13:09:10.255Z,2.42
2023-03-21T13:10:21.291Z,2.20
2023-03-21T13:11:26.314Z,2.33
2023-03-21T13:12:57.387Z,2.30
2023-03-21T13:14:05.993Z,2.47
2023-03-21T13:15:30.419Z,2.45
2023-03-21T13:17:02.752Z,2.45
2023-03-21T13:18:23.206Z,2.53
2023-03-21T13:19:42.510Z,2.50
2023-03-21T13:20:50.676Z,2.50
2023-03-21T13:22:11.258Z,2.80
2023-03-21T13:23:13.983Z,2.90
2023-03-21T13:24:43.799Z,2.05
2023-03-21T13:25:49.135Z,1.95
2023-03-21T13:27:14.154Z,2.10
2023-03-21T13:28:21.716Z,2.25
2023-03-21T13:29:44.326Z,2.20
2023-03-21T13:30:48.774Z,2.15
2023-03-21T13:31:56.689Z,2.35
2023-03-21T13:33:08.302Z,2.15
2023-03-21T13:34:10.610Z,2.10
2023-03-21T13:35:17.353Z,2.58
2023-03-21T13:36:29.144Z,2.33
2023-03-21T13:38:40.208Z,2.28
2023-03-21T13:39:47.154Z,2.10
2023-03-21T13:40:52.166Z,2.45
2023-03-21T13:41:54.742Z,2.05
2023-03-21T13:43:00.550Z,2.50
2023-03-21T13:44:02.350Z,2.40
2023-03-21T13:45:11.043Z,2.33
2023-03-21T13:46:54.883Z,2.37
2023-03-21T13:48:18.466Z,2.37
2023-03-21T13:49:33.204Z,2.40
2023-03-21T13:50:51.088Z,2.40
2023-03-21T13:51:56.788Z,2.10
2023-03-21T13:53:18.211Z,2.10
2023-03-21T13:54:35.021Z,2.15
2023-03-21T13:55:42.480Z,2.25
2023-03-21T13:56:47.266Z,2.40
2023-03-21T13:57:49.150Z,2.33
2023-03-21T13:58:54.765Z,2.37
2023-03-21T14:00:19.591Z,2.17
2023-03-21T14:01:30.583Z,2.10
2023-03-21T14:02:34.508Z,2.17
2023-03-21T14:03:36.425Z,2.22
2023-03-21T14:04:42.608Z,2.20
2023-03-21T14:05:50.752Z,2.00
2023-03-21T14:07:12.097Z,2.20
2023-03-21T14:08:27.748Z,2.00
2023-03-21T14:09:44.300Z,2.12
2023-03-21T14:10:49.264Z,2.00
2023-03-21T14:11:54.729Z,1.90
2023-03-21T14:12:59.570Z,1.70
2023-03-21T14:14:03.423Z,1.77
2023-03-21T14:15:18.336Z,1.60
2023-03-21T14:16:22.097Z,1.58
2023-03-21T14:17:26.841Z,2.30
2023-03-21T14:18:52.420Z,1.87
2023-03-21T14:19:56.061Z,2.35
2023-03-21T14:21:01.315Z,2.25
2023-03-21T14:22:05.187Z,1.87
2023-03-21T14:23:13.166Z,1.98
2023-03-21T14:24:17.362Z,1.80
2023-03-21T14:25:23.166Z,2.30
2023-03-21T14:26:27.442Z,1.73
2023-03-21T14:27:32.813Z,1.90
2023-03-21T14:28:36.192Z,1.87
2023-03-21T14:29:39.611Z,1.98
2023-03-21T14:30:43.005Z,1.80
2023-03-21T14:31:47.344Z,1.90
2023-03-21T14:32:49.310Z,1.55
2023-03-21T14:33:54.165Z,1.90
2023-03-21T14:34:59.523Z,1.87
2023-03-21T14:36:08.901Z,1.58
2023-03-21T14:37:11.540Z,2.15
2023-03-21T14:38:41.618Z,1.80
2023-03-21T14:39:43.583Z,1.70
2023-03-21T14:40:52.197Z,1.45
2023-03-21T14:41:56.730Z,1.62
2023-03-21T14:43:05.682Z,1.62
2023-03-21T14:44:25.795Z,1.52
2023-03-21T14:45:30.653Z,1.70
2023-03-21T14:46:33.756Z,1.90
2023-03-21T14:47:37.309Z,1.67
2023-03-21T14:48:39.307Z,1.73
2023-03-21T14:49:41.206Z,2.17
2023-03-21T14:50:48.115Z,1.70
2023-03-21T14:51:51.987Z,1.70
2023-03-21T14:52:54.514Z,1.98
2023-03-21T14:53:57.503Z,1.95
2023-03-21T14:55:01.713Z,1.58
2023-03-21T14:56:06.778Z,1.70
2023-03-21T14:57:14.065Z,1.70
2023-03-21T14:58:21.799Z,1.37
2023-03-21T14:59:26.952Z,1.50
2023-03-21T15:00:31.132Z,1.50
2023-03-21T15:01:35.032Z,1.60
2023-03-21T15:02:40.307Z,1.80
2023-03-21T15:03:46.249Z,1.75
2023-03-21T15:04:54.341Z,1.60
2023-03-21T15:05:57.137Z,1.50